sensor_id;sensor_type;location;lat;lon;timestamp;temperature;humidity
40670;DHT22;26355;45.528;9.234;2022-07-24T00:02:00;33.40;81.90
40670;DHT22;26355;45.528;9.234;2022-07-24T00:04:26;33.60;81.60
40670;DHT22;26355;45.528;9.234;2022-07-24T00:06:51;33.60;81.40
40670;DHT22;26355;45.528;9.234;2022-07-24T00:09:17;33.70;81.20
40670;DHT22;26355;45.528;9.234;2022-07-24T00:11:43;33.60;81.10
40670;DHT22;26355;45.528;9.234;2022-07-24T00:14:09;33.60;81.10
40670;DHT22;26355;45.528;9.234;2022-07-24T00:16:35;33.60;81.20
40670;DHT22;26355;45.528;9.234;2022-07-24T00:19:00;33.60;81.20
40670;DHT22;26355;45.528;9.234;2022-07-24T00:21:26;33.70;81.20
40670;DHT22;26355;45.528;9.234;2022-07-24T00:23:52;33.70;81.20
40670;DHT22;26355;45.528;9.234;2022-07-24T00:26:17;33.70;81.20
40670;DHT22;26355;45.528;9.234;2022-07-24T00:28:43;33.70;81.20
40670;DHT22;26355;45.528;9.234;2022-07-24T00:31:09;33.70;81.20
40670;DHT22;26355;45.528;9.234;2022-07-24T00:33:35;33.70;81.00
40670;DHT22;26355;45.528;9.234;2022-07-24T00:36:01;33.70;81.00
40670;DHT22;26355;45.528;9.234;2022-07-24T00:38:26;33.80;81.00
40670;DHT22;26355;45.528;9.234;2022-07-24T00:40:52;33.80;81.00
40670;DHT22;26355;45.528;9.234;2022-07-24T00:43:18;33.70;81.00
40670;DHT22;26355;45.528;9.234;2022-07-24T00:45:45;33.80;81.00
40670;DHT22;26355;45.528;9.234;2022-07-24T00:48:11;33.80;81.00
40670;DHT22;26355;45.528;9.234;2022-07-24T00:50:37;33.70;81.20
40670;DHT22;26355;45.528;9.234;2022-07-24T00:53:03;33.50;81.30
40670;DHT22;26355;45.528;9.234;2022-07-24T00:55:29;33.30;81.70
40670;DHT22;26355;45.528;9.234;2022-07-24T00:57:55;33.20;81.90
40670;DHT22;26355;45.528;9.234;2022-07-24T01:00:22;33.00;82.10
40670;DHT22;26355;45.528;9.234;2022-07-24T01:02:49;33.00;82.30
40670;DHT22;26355;45.528;9.234;2022-07-24T01:05:15;33.20;82.40
40670;DHT22;26355;45.528;9.234;2022-07-24T01:07:41;33.20;82.20
40670;DHT22;26355;45.528;9.234;2022-07-24T01:10:07;33.30;82.10
40670;DHT22;26355;45.528;9.234;2022-07-24T01:12:37;33.20;82.10
40670;DHT22;26355;45.528;9.234;2022-07-24T01:15:04;33.10;82.30
40670;DHT22;26355;45.528;9.234;2022-07-24T01:17:31;33.00;82.60
40670;DHT22;26355;45.528;9.234;2022-07-24T01:19:58;32.80;82.90
40670;DHT22;26355;45.528;9.234;2022-07-24T01:22:27;32.70;83.50
40670;DHT22;26355;45.528;9.234;2022-07-24T01:24:54;32.70;83.40
40670;DHT22;26355;45.528;9.234;2022-07-24T01:27:21;32.90;83.30
40670;DHT22;26355;45.528;9.234;2022-07-24T01:29:48;32.90;83.10
40670;DHT22;26355;45.528;9.234;2022-07-24T01:32:14;33.00;82.90
40670;DHT22;26355;45.528;9.234;2022-07-24T01:34:39;33.10;82.70
40670;DHT22;26355;45.528;9.234;2022-07-24T01:37:05;33.10;82.70
40670;DHT22;26355;45.528;9.234;2022-07-24T01:39:31;33.20;82.60
40670;DHT22;26355;45.528;9.234;2022-07-24T01:41:56;33.30;82.50
40670;DHT22;26355;45.528;9.234;2022-07-24T01:44:22;33.30;82.40
40670;DHT22;26355;45.528;9.234;2022-07-24T01:46:48;33.20;82.50
40670;DHT22;26355;45.528;9.234;2022-07-24T01:49:13;33.10;82.80
40670;DHT22;26355;45.528;9.234;2022-07-24T01:51:39;32.90;83.10
40670;DHT22;26355;45.528;9.234;2022-07-24T01:54:05;32.60;83.70
40670;DHT22;26355;45.528;9.234;2022-07-24T01:56:32;32.50;84.40
40670;DHT22;26355;45.528;9.234;2022-07-24T01:58:57;32.30;85.10
40670;DHT22;26355;45.528;9.234;2022-07-24T02:01:24;32.20;85.60
40670;DHT22;26355;45.528;9.234;2022-07-24T02:03:49;32.20;86.00
40670;DHT22;26355;45.528;9.234;2022-07-24T02:06:15;32.20;86.20
40670;DHT22;26355;45.528;9.234;2022-07-24T02:08:42;32.30;86.40
40670;DHT22;26355;45.528;9.234;2022-07-24T02:11:07;32.40;86.20
40670;DHT22;26355;45.528;9.234;2022-07-24T02:13:34;32.50;86.10
40670;DHT22;26355;45.528;9.234;2022-07-24T02:15:59;32.60;86.10
40670;DHT22;26355;45.528;9.234;2022-07-24T02:18:25;32.60;86.60
40670;DHT22;26355;45.528;9.234;2022-07-24T02:20:51;32.80;86.10
40670;DHT22;26355;45.528;9.234;2022-07-24T02:23:16;32.80;85.90
40670;DHT22;26355;45.528;9.234;2022-07-24T02:25:46;32.70;86.00
40670;DHT22;26355;45.528;9.234;2022-07-24T02:28:12;32.80;86.20
40670;DHT22;26355;45.528;9.234;2022-07-24T02:30:39;32.80;86.30
40670;DHT22;26355;45.528;9.234;2022-07-24T02:33:05;32.80;86.00
40670;DHT22;26355;45.528;9.234;2022-07-24T02:35:31;32.90;86.20
40670;DHT22;26355;45.528;9.234;2022-07-24T02:37:56;33.00;86.30
40670;DHT22;26355;45.528;9.234;2022-07-24T02:40:22;33.00;86.40
40670;DHT22;26355;45.528;9.234;2022-07-24T02:42:47;33.00;86.30
40670;DHT22;26355;45.528;9.234;2022-07-24T02:45:13;32.90;86.30
40670;DHT22;26355;45.528;9.234;2022-07-24T02:47:49;32.90;86.50
40670;DHT22;26355;45.528;9.234;2022-07-24T02:50:15;32.90;86.60
40670;DHT22;26355;45.528;9.234;2022-07-24T02:52:41;33.00;86.50
40670;DHT22;26355;45.528;9.234;2022-07-24T02:55:07;32.90;86.50
40670;DHT22;26355;45.528;9.234;2022-07-24T02:57:33;33.00;86.60
40670;DHT22;26355;45.528;9.234;2022-07-24T02:59:58;33.10;86.40
40670;DHT22;26355;45.528;9.234;2022-07-24T03:02:24;33.10;86.30
40670;DHT22;26355;45.528;9.234;2022-07-24T03:04:49;33.10;86.30
40670;DHT22;26355;45.528;9.234;2022-07-24T03:07:15;33.10;86.30
40670;DHT22;26355;45.528;9.234;2022-07-24T03:09:41;33.00;86.30
40670;DHT22;26355;45.528;9.234;2022-07-24T03:12:07;33.10;86.40
40670;DHT22;26355;45.528;9.234;2022-07-24T03:14:32;33.10;86.50
40670;DHT22;26355;45.528;9.234;2022-07-24T03:16:58;33.20;86.30
40670;DHT22;26355;45.528;9.234;2022-07-24T03:19:23;33.10;86.40
40670;DHT22;26355;45.528;9.234;2022-07-24T03:21:49;33.10;86.40
40670;DHT22;26355;45.528;9.234;2022-07-24T03:24:15;33.00;86.50
40670;DHT22;26355;45.528;9.234;2022-07-24T03:26:41;33.00;86.70
40670;DHT22;26355;45.528;9.234;2022-07-24T03:29:07;33.00;86.80
40670;DHT22;26355;45.528;9.234;2022-07-24T03:31:32;33.00;86.80
40670;DHT22;26355;45.528;9.234;2022-07-24T03:33:58;33.00;87.00
40670;DHT22;26355;45.528;9.234;2022-07-24T03:36:24;33.00;86.90
40670;DHT22;26355;45.528;9.234;2022-07-24T03:38:49;33.00;87.00
40670;DHT22;26355;45.528;9.234;2022-07-24T03:41:15;33.10;87.00
40670;DHT22;26355;45.528;9.234;2022-07-24T03:43:40;33.00;87.00
40670;DHT22;26355;45.528;9.234;2022-07-24T03:46:06;33.00;87.20
40670;DHT22;26355;45.528;9.234;2022-07-24T03:48:32;33.00;87.30
40670;DHT22;26355;45.528;9.234;2022-07-24T03:50:57;33.00;87.30
40670;DHT22;26355;45.528;9.234;2022-07-24T03:53:23;33.00;87.40
40670;DHT22;26355;45.528;9.234;2022-07-24T03:55:49;33.10;87.50
40670;DHT22;26355;45.528;9.234;2022-07-24T03:58:14;33.10;87.40
40670;DHT22;26355;45.528;9.234;2022-07-24T04:00:40;32.90;87.60
40670;DHT22;26355;45.528;9.234;2022-07-24T04:03:06;32.70;88.10
40670;DHT22;26355;45.528;9.234;2022-07-24T04:05:31;32.50;88.50
40670;DHT22;26355;45.528;9.234;2022-07-24T04:07:57;32.40;88.90
40670;DHT22;26355;45.528;9.234;2022-07-24T04:10:23;32.30;89.40
40670;DHT22;26355;45.528;9.234;2022-07-24T04:12:48;32.20;89.60
40670;DHT22;26355;45.528;9.234;2022-07-24T04:15:14;32.10;90.00
40670;DHT22;26355;45.528;9.234;2022-07-24T04:17:42;32.20;90.00
40670;DHT22;26355;45.528;9.234;2022-07-24T04:20:09;32.30;90.10
40670;DHT22;26355;45.528;9.234;2022-07-24T04:22:35;32.30;90.00
40670;DHT22;26355;45.528;9.234;2022-07-24T04:25:01;32.30;90.10
40670;DHT22;26355;45.528;9.234;2022-07-24T04:27:26;32.30;90.10
40670;DHT22;26355;45.528;9.234;2022-07-24T04:29:52;32.40;90.10
40670;DHT22;26355;45.528;9.234;2022-07-24T04:32:18;32.40;90.20
40670;DHT22;26355;45.528;9.234;2022-07-24T04:34:43;32.30;90.20
40670;DHT22;26355;45.528;9.234;2022-07-24T04:37:09;32.30;90.20
40670;DHT22;26355;45.528;9.234;2022-07-24T04:39:34;32.30;90.30
40670;DHT22;26355;45.528;9.234;2022-07-24T04:42:00;32.30;90.30
40670;DHT22;26355;45.528;9.234;2022-07-24T04:44:26;32.30;90.30
40670;DHT22;26355;45.528;9.234;2022-07-24T04:46:51;32.40;90.30
40670;DHT22;26355;45.528;9.234;2022-07-24T04:49:17;32.40;90.40
40670;DHT22;26355;45.528;9.234;2022-07-24T04:51:42;32.40;90.40
40670;DHT22;26355;45.528;9.234;2022-07-24T04:54:08;32.30;90.40
40670;DHT22;26355;45.528;9.234;2022-07-24T04:56:34;32.30;90.50
40670;DHT22;26355;45.528;9.234;2022-07-24T04:59:00;32.20;90.60
40670;DHT22;26355;45.528;9.234;2022-07-24T05:01:27;32.20;91.00
40670;DHT22;26355;45.528;9.234;2022-07-24T05:03:53;32.20;90.90
40670;DHT22;26355;45.528;9.234;2022-07-24T05:06:24;32.10;90.90
40670;DHT22;26355;45.528;9.234;2022-07-24T05:08:50;32.20;91.00
40670;DHT22;26355;45.528;9.234;2022-07-24T05:11:16;32.20;91.00
40670;DHT22;26355;45.528;9.234;2022-07-24T05:13:42;32.10;91.10
40670;DHT22;26355;45.528;9.234;2022-07-24T05:16:07;32.10;91.10
40670;DHT22;26355;45.528;9.234;2022-07-24T05:18:33;32.20;91.10
40670;DHT22;26355;45.528;9.234;2022-07-24T05:20:59;32.10;91.20
40670;DHT22;26355;45.528;9.234;2022-07-24T05:23:24;32.00;91.30
40670;DHT22;26355;45.528;9.234;2022-07-24T05:25:50;32.10;91.40
40670;DHT22;26355;45.528;9.234;2022-07-24T05:28:16;32.10;91.40
40670;DHT22;26355;45.528;9.234;2022-07-24T05:30:42;32.00;91.40
40670;DHT22;26355;45.528;9.234;2022-07-24T05:33:08;31.90;91.40
40670;DHT22;26355;45.528;9.234;2022-07-24T05:35:33;31.90;91.50
40670;DHT22;26355;45.528;9.234;2022-07-24T05:37:59;31.90;91.50
40670;DHT22;26355;45.528;9.234;2022-07-24T05:40:24;31.90;91.50
40670;DHT22;26355;45.528;9.234;2022-07-24T05:42:50;31.90;91.50
40670;DHT22;26355;45.528;9.234;2022-07-24T05:45:16;32.00;91.40
40670;DHT22;26355;45.528;9.234;2022-07-24T05:47:41;31.90;91.40
40670;DHT22;26355;45.528;9.234;2022-07-24T05:50:08;31.80;91.60
40670;DHT22;26355;45.528;9.234;2022-07-24T05:52:34;31.70;91.60
40670;DHT22;26355;45.528;9.234;2022-07-24T05:55:00;31.80;91.60
40670;DHT22;26355;45.528;9.234;2022-07-24T05:57:25;31.80;91.60
40670;DHT22;26355;45.528;9.234;2022-07-24T05:59:51;31.60;91.60
40670;DHT22;26355;45.528;9.234;2022-07-24T06:02:17;31.60;91.70
40670;DHT22;26355;45.528;9.234;2022-07-24T06:04:42;31.70;91.60
40670;DHT22;26355;45.528;9.234;2022-07-24T06:07:11;31.70;91.60
40670;DHT22;26355;45.528;9.234;2022-07-24T06:09:37;31.80;91.70
40670;DHT22;26355;45.528;9.234;2022-07-24T06:12:03;31.80;91.60
40670;DHT22;26355;45.528;9.234;2022-07-24T06:14:30;31.70;91.60
40670;DHT22;26355;45.528;9.234;2022-07-24T06:16:56;31.70;91.70
40670;DHT22;26355;45.528;9.234;2022-07-24T06:19:22;31.80;91.50
40670;DHT22;26355;45.528;9.234;2022-07-24T06:21:47;31.80;91.40
40670;DHT22;26355;45.528;9.234;2022-07-24T06:24:14;31.80;91.30
40670;DHT22;26355;45.528;9.234;2022-07-24T06:26:39;31.80;91.30
40670;DHT22;26355;45.528;9.234;2022-07-24T06:29:05;31.70;91.50
40670;DHT22;26355;45.528;9.234;2022-07-24T06:31:30;31.80;91.50
40670;DHT22;26355;45.528;9.234;2022-07-24T06:33:56;31.60;91.60
40670;DHT22;26355;45.528;9.234;2022-07-24T06:36:22;31.70;91.70
40670;DHT22;26355;45.528;9.234;2022-07-24T06:38:47;31.70;91.60
40670;DHT22;26355;45.528;9.234;2022-07-24T06:41:13;31.80;91.60
40670;DHT22;26355;45.528;9.234;2022-07-24T06:43:39;31.80;91.50
40670;DHT22;26355;45.528;9.234;2022-07-24T06:46:05;31.80;91.40
40670;DHT22;26355;45.528;9.234;2022-07-24T06:48:31;31.80;91.40
40670;DHT22;26355;45.528;9.234;2022-07-24T06:50:57;31.80;91.40
40670;DHT22;26355;45.528;9.234;2022-07-24T06:53:22;31.60;91.50
40670;DHT22;26355;45.528;9.234;2022-07-24T06:55:48;31.70;91.60
40670;DHT22;26355;45.528;9.234;2022-07-24T06:58:14;31.70;91.50
40670;DHT22;26355;45.528;9.234;2022-07-24T07:00:40;31.80;91.50
40670;DHT22;26355;45.528;9.234;2022-07-24T07:03:05;31.90;91.40
40670;DHT22;26355;45.528;9.234;2022-07-24T07:05:31;31.70;91.40
40670;DHT22;26355;45.528;9.234;2022-07-24T07:07:57;31.80;91.50
40670;DHT22;26355;45.528;9.234;2022-07-24T07:10:23;31.60;91.20
40670;DHT22;26355;45.528;9.234;2022-07-24T07:12:49;31.40;91.10
40670;DHT22;26355;45.528;9.234;2022-07-24T07:15:14;31.30;91.30
40670;DHT22;26355;45.528;9.234;2022-07-24T07:17:41;31.00;91.50
40670;DHT22;26355;45.528;9.234;2022-07-24T07:20:08;31.20;91.50
40670;DHT22;26355;45.528;9.234;2022-07-24T07:22:34;31.30;91.60
40670;DHT22;26355;45.528;9.234;2022-07-24T07:25:00;31.30;91.20
40670;DHT22;26355;45.528;9.234;2022-07-24T07:27:26;31.30;91.00
40670;DHT22;26355;45.528;9.234;2022-07-24T07:29:51;31.20;91.10
40670;DHT22;26355;45.528;9.234;2022-07-24T07:32:17;31.30;91.10
40670;DHT22;26355;45.528;9.234;2022-07-24T07:34:43;31.40;90.90
40670;DHT22;26355;45.528;9.234;2022-07-24T07:37:08;31.50;90.80
40670;DHT22;26355;45.528;9.234;2022-07-24T07:39:34;31.70;90.60
40670;DHT22;26355;45.528;9.234;2022-07-24T07:42:00;31.80;90.50
40670;DHT22;26355;45.528;9.234;2022-07-24T07:44:25;31.80;90.40
40670;DHT22;26355;45.528;9.234;2022-07-24T07:46:51;31.90;90.40
40670;DHT22;26355;45.528;9.234;2022-07-24T07:49:18;31.70;90.50
40670;DHT22;26355;45.528;9.234;2022-07-24T07:51:43;31.80;90.50
40670;DHT22;26355;45.528;9.234;2022-07-24T07:54:13;31.50;90.60
40670;DHT22;26355;45.528;9.234;2022-07-24T07:56:39;31.30;91.00
40670;DHT22;26355;45.528;9.234;2022-07-24T07:59:05;31.30;91.00
40670;DHT22;26355;45.528;9.234;2022-07-24T08:01:30;31.40;90.90
40670;DHT22;26355;45.528;9.234;2022-07-24T08:03:56;31.50;90.80
40670;DHT22;26355;45.528;9.234;2022-07-24T08:06:22;31.60;90.70
40670;DHT22;26355;45.528;9.234;2022-07-24T08:08:47;31.80;90.70
40670;DHT22;26355;45.528;9.234;2022-07-24T08:11:13;31.90;90.60
40670;DHT22;26355;45.528;9.234;2022-07-24T08:13:39;31.90;90.40
40670;DHT22;26355;45.528;9.234;2022-07-24T08:16:04;31.80;90.50
40670;DHT22;26355;45.528;9.234;2022-07-24T08:18:30;31.80;90.70
40670;DHT22;26355;45.528;9.234;2022-07-24T08:20:55;31.70;90.60
40670;DHT22;26355;45.528;9.234;2022-07-24T08:23:21;31.70;90.70
40670;DHT22;26355;45.528;9.234;2022-07-24T08:25:47;31.60;90.80
40670;DHT22;26355;45.528;9.234;2022-07-24T08:28:12;31.70;90.90
40670;DHT22;26355;45.528;9.234;2022-07-24T08:30:38;31.90;90.90
40670;DHT22;26355;45.528;9.234;2022-07-24T08:33:03;32.00;90.70
40670;DHT22;26355;45.528;9.234;2022-07-24T08:35:29;32.20;90.50
40670;DHT22;26355;45.528;9.234;2022-07-24T08:37:55;32.20;90.30
40670;DHT22;26355;45.528;9.234;2022-07-24T08:40:22;32.20;90.30
40670;DHT22;26355;45.528;9.234;2022-07-24T08:42:48;32.30;90.20
40670;DHT22;26355;45.528;9.234;2022-07-24T08:45:13;32.10;90.20
40670;DHT22;26355;45.528;9.234;2022-07-24T08:47:40;31.90;90.60
40670;DHT22;26355;45.528;9.234;2022-07-24T08:50:06;31.70;90.50
40670;DHT22;26355;45.528;9.234;2022-07-24T08:52:33;31.60;90.90
40670;DHT22;26355;45.528;9.234;2022-07-24T08:55:00;31.70;90.80
40670;DHT22;26355;45.528;9.234;2022-07-24T08:57:26;31.90;90.60
40670;DHT22;26355;45.528;9.234;2022-07-24T08:59:52;32.10;90.60
40670;DHT22;26355;45.528;9.234;2022-07-24T09:02:18;32.20;90.60
40670;DHT22;26355;45.528;9.234;2022-07-24T09:04:46;32.40;90.40
40670;DHT22;26355;45.528;9.234;2022-07-24T09:07:14;32.50;89.70
40670;DHT22;26355;45.528;9.234;2022-07-24T09:09:41;32.50;89.20
40670;DHT22;26355;45.528;9.234;2022-07-24T09:12:17;32.50;89.20
40670;DHT22;26355;45.528;9.234;2022-07-24T09:14:45;32.50;88.60
40670;DHT22;26355;45.528;9.234;2022-07-24T09:17:20;32.60;88.80
40670;DHT22;26355;45.528;9.234;2022-07-24T09:27:29;33.00;87.20
40670;DHT22;26355;45.528;9.234;2022-07-24T09:29:55;33.10;87.40
40670;DHT22;26355;45.528;9.234;2022-07-24T09:32:24;33.20;87.70
40670;DHT22;26355;45.528;9.234;2022-07-24T09:34:54;33.30;87.10
40670;DHT22;26355;45.528;9.234;2022-07-24T09:37:20;33.40;87.50
40670;DHT22;26355;45.528;9.234;2022-07-24T09:39:46;33.50;86.70
40670;DHT22;26355;45.528;9.234;2022-07-24T09:42:12;33.70;86.50
40670;DHT22;26355;45.528;9.234;2022-07-24T09:44:39;33.80;86.20
40670;DHT22;26355;45.528;9.234;2022-07-24T09:47:10;34.00;85.60
40670;DHT22;26355;45.528;9.234;2022-07-24T09:49:38;34.00;85.40
40670;DHT22;26355;45.528;9.234;2022-07-24T09:52:12;34.10;85.20
40670;DHT22;26355;45.528;9.234;2022-07-24T09:54:48;34.30;85.50
40670;DHT22;26355;45.528;9.234;2022-07-24T09:57:21;34.30;83.90
40670;DHT22;26355;45.528;9.234;2022-07-24T10:00:01;34.00;84.20
40670;DHT22;26355;45.528;9.234;2022-07-24T10:02:31;33.90;83.80
40670;DHT22;26355;45.528;9.234;2022-07-24T10:04:58;33.70;84.40
40670;DHT22;26355;45.528;9.234;2022-07-24T10:07:25;33.80;84.40
40670;DHT22;26355;45.528;9.234;2022-07-24T10:09:54;33.80;84.20
40670;DHT22;26355;45.528;9.234;2022-07-24T10:12:28;34.00;84.40
40670;DHT22;26355;45.528;9.234;2022-07-24T10:14:56;34.10;84.80
40670;DHT22;26355;45.528;9.234;2022-07-24T10:19:59;34.40;83.40
40670;DHT22;26355;45.528;9.234;2022-07-24T10:22:34;34.50;83.40
40670;DHT22;26355;45.528;9.234;2022-07-24T10:25:07;34.60;82.60
40670;DHT22;26355;45.528;9.234;2022-07-24T10:27:36;34.70;83.00
40670;DHT22;26355;45.528;9.234;2022-07-24T10:30:08;34.70;82.50
40670;DHT22;26355;45.528;9.234;2022-07-24T10:32:35;34.50;82.80
40670;DHT22;26355;45.528;9.234;2022-07-24T10:35:06;34.50;82.60
40670;DHT22;26355;45.528;9.234;2022-07-24T10:37:43;34.50;82.90
40670;DHT22;26355;45.528;9.234;2022-07-24T10:45:46;34.70;82.00
40670;DHT22;26355;45.528;9.234;2022-07-24T10:50:59;34.80;81.80
40670;DHT22;26355;45.528;9.234;2022-07-24T10:53:27;34.70;81.30
40670;DHT22;26355;45.528;9.234;2022-07-24T10:56:12;34.70;82.00
40670;DHT22;26355;45.528;9.234;2022-07-24T11:04:24;34.90;81.00
40670;DHT22;26355;45.528;9.234;2022-07-24T11:07:09;34.90;80.80
40670;DHT22;26355;45.528;9.234;2022-07-24T11:09:58;34.90;80.70
40670;DHT22;26355;45.528;9.234;2022-07-24T11:12:33;34.80;80.80
40670;DHT22;26355;45.528;9.234;2022-07-24T11:15:05;34.80;80.50
40670;DHT22;26355;45.528;9.234;2022-07-24T11:17:50;34.80;80.90
40670;DHT22;26355;45.528;9.234;2022-07-24T11:20:17;34.80;81.50
40670;DHT22;26355;45.528;9.234;2022-07-24T11:22:50;35.00;81.80
40670;DHT22;26355;45.528;9.234;2022-07-24T11:25:18;35.20;81.50
40670;DHT22;26355;45.528;9.234;2022-07-24T11:27:49;35.30;80.80
40670;DHT22;26355;45.528;9.234;2022-07-24T11:30:17;35.20;80.20
40670;DHT22;26355;45.528;9.234;2022-07-24T11:32:43;34.80;80.50
40670;DHT22;26355;45.528;9.234;2022-07-24T11:35:09;34.90;80.90
40670;DHT22;26355;45.528;9.234;2022-07-24T11:37:36;35.00;80.70
40670;DHT22;26355;45.528;9.234;2022-07-24T11:40:04;34.90;80.30
40670;DHT22;26355;45.528;9.234;2022-07-24T11:42:31;34.80;80.60
40670;DHT22;26355;45.528;9.234;2022-07-24T11:44:57;34.80;80.40
40670;DHT22;26355;45.528;9.234;2022-07-24T11:47:24;34.90;80.50
40670;DHT22;26355;45.528;9.234;2022-07-24T11:52:30;35.00;80.80
40670;DHT22;26355;45.528;9.234;2022-07-24T11:55:00;35.00;80.50
40670;DHT22;26355;45.528;9.234;2022-07-24T11:57:29;35.20;80.90
40670;DHT22;26355;45.528;9.234;2022-07-24T11:59:55;35.30;80.40
40670;DHT22;26355;45.528;9.234;2022-07-24T12:02:21;35.30;79.90
40670;DHT22;26355;45.528;9.234;2022-07-24T12:04:48;35.30;80.10
40670;DHT22;26355;45.528;9.234;2022-07-24T12:07:23;35.40;79.90
40670;DHT22;26355;45.528;9.234;2022-07-24T12:09:55;35.40;79.60
40670;DHT22;26355;45.528;9.234;2022-07-24T12:12:28;35.40;79.70
40670;DHT22;26355;45.528;9.234;2022-07-24T12:15:15;35.40;79.60
40670;DHT22;26355;45.528;9.234;2022-07-24T12:18:08;35.40;79.30
40670;DHT22;26355;45.528;9.234;2022-07-24T12:20:39;35.50;78.60
40670;DHT22;26355;45.528;9.234;2022-07-24T12:23:13;35.50;79.70
40670;DHT22;26355;45.528;9.234;2022-07-24T12:25:40;35.70;79.70
40670;DHT22;26355;45.528;9.234;2022-07-24T12:28:11;35.70;79.60
40670;DHT22;26355;45.528;9.234;2022-07-24T12:30:42;35.70;79.40
40670;DHT22;26355;45.528;9.234;2022-07-24T12:35:55;35.80;78.70
40670;DHT22;26355;45.528;9.234;2022-07-24T12:40:50;36.00;78.70
40670;DHT22;26355;45.528;9.234;2022-07-24T12:43:16;35.80;78.70
40670;DHT22;26355;45.528;9.234;2022-07-24T12:45:42;35.80;78.90
40670;DHT22;26355;45.528;9.234;2022-07-24T12:48:09;35.70;78.80
40670;DHT22;26355;45.528;9.234;2022-07-24T12:50:35;35.50;78.80
40670;DHT22;26355;45.528;9.234;2022-07-24T12:53:08;35.40;78.90
40670;DHT22;26355;45.528;9.234;2022-07-24T12:55:35;35.50;79.20
40670;DHT22;26355;45.528;9.234;2022-07-24T12:58:02;35.50;78.90
40670;DHT22;26355;45.528;9.234;2022-07-24T13:00:29;35.60;78.30
40670;DHT22;26355;45.528;9.234;2022-07-24T13:02:55;35.60;78.40
40670;DHT22;26355;45.528;9.234;2022-07-24T13:05:37;35.80;78.40
40670;DHT22;26355;45.528;9.234;2022-07-24T13:08:03;35.90;78.00
40670;DHT22;26355;45.528;9.234;2022-07-24T13:10:29;35.90;77.90
40670;DHT22;26355;45.528;9.234;2022-07-24T13:12:55;35.90;77.90
40670;DHT22;26355;45.528;9.234;2022-07-24T13:15:20;36.00;78.10
40670;DHT22;26355;45.528;9.234;2022-07-24T13:17:46;35.90;78.30
40670;DHT22;26355;45.528;9.234;2022-07-24T13:20:11;35.90;78.60
40670;DHT22;26355;45.528;9.234;2022-07-24T13:22:37;35.80;78.70
40670;DHT22;26355;45.528;9.234;2022-07-24T13:25:03;35.60;78.80
40670;DHT22;26355;45.528;9.234;2022-07-24T13:27:29;35.20;79.20
40670;DHT22;26355;45.528;9.234;2022-07-24T13:29:55;35.00;79.80
40670;DHT22;26355;45.528;9.234;2022-07-24T13:32:20;35.20;79.90
40670;DHT22;26355;45.528;9.234;2022-07-24T13:34:46;35.20;79.70
40670;DHT22;26355;45.528;9.234;2022-07-24T13:37:11;35.40;79.30
40670;DHT22;26355;45.528;9.234;2022-07-24T13:39:37;35.50;78.90
40670;DHT22;26355;45.528;9.234;2022-07-24T13:42:05;35.60;78.60
40670;DHT22;26355;45.528;9.234;2022-07-24T13:44:31;35.60;79.00
40670;DHT22;26355;45.528;9.234;2022-07-24T13:46:56;35.60;79.00
40670;DHT22;26355;45.528;9.234;2022-07-24T13:49:23;35.70;79.00
40670;DHT22;26355;45.528;9.234;2022-07-24T13:51:48;35.70;78.80
40670;DHT22;26355;45.528;9.234;2022-07-24T13:54:14;35.60;78.80
40670;DHT22;26355;45.528;9.234;2022-07-24T13:56:40;35.60;78.70
40670;DHT22;26355;45.528;9.234;2022-07-24T13:59:07;35.70;78.80
40670;DHT22;26355;45.528;9.234;2022-07-24T14:01:33;35.70;78.60
40670;DHT22;26355;45.528;9.234;2022-07-24T14:03:58;35.70;78.90
40670;DHT22;26355;45.528;9.234;2022-07-24T14:06:24;35.70;78.50
40670;DHT22;26355;45.528;9.234;2022-07-24T14:08:51;35.80;78.10
40670;DHT22;26355;45.528;9.234;2022-07-24T14:11:16;35.70;77.20
40670;DHT22;26355;45.528;9.234;2022-07-24T14:13:42;35.70;77.50
40670;DHT22;26355;45.528;9.234;2022-07-24T14:16:07;35.70;77.80
40670;DHT22;26355;45.528;9.234;2022-07-24T14:18:33;35.70;77.70
40670;DHT22;26355;45.528;9.234;2022-07-24T14:20:59;35.80;77.60
40670;DHT22;26355;45.528;9.234;2022-07-24T14:23:25;35.90;77.40
40670;DHT22;26355;45.528;9.234;2022-07-24T14:25:50;35.90;77.00
40670;DHT22;26355;45.528;9.234;2022-07-24T14:28:16;35.80;77.40
40670;DHT22;26355;45.528;9.234;2022-07-24T14:30:42;35.80;77.00
40670;DHT22;26355;45.528;9.234;2022-07-24T14:33:08;35.80;77.00
40670;DHT22;26355;45.528;9.234;2022-07-24T14:35:34;35.80;77.10
40670;DHT22;26355;45.528;9.234;2022-07-24T14:38:00;35.80;77.00
40670;DHT22;26355;45.528;9.234;2022-07-24T14:40:25;35.80;77.40
40670;DHT22;26355;45.528;9.234;2022-07-24T14:42:51;35.90;77.20
40670;DHT22;26355;45.528;9.234;2022-07-24T14:45:17;36.10;77.00
40670;DHT22;26355;45.528;9.234;2022-07-24T14:47:42;36.10;76.70
40670;DHT22;26355;45.528;9.234;2022-07-24T14:50:09;36.10;76.80
40670;DHT22;26355;45.528;9.234;2022-07-24T14:52:35;36.00;76.90
40670;DHT22;26355;45.528;9.234;2022-07-24T14:55:01;35.60;76.50
40670;DHT22;26355;45.528;9.234;2022-07-24T14:57:26;35.60;77.00
40670;DHT22;26355;45.528;9.234;2022-07-24T14:59:52;35.40;77.30
40670;DHT22;26355;45.528;9.234;2022-07-24T15:02:18;35.20;77.60
40670;DHT22;26355;45.528;9.234;2022-07-24T15:04:43;35.40;77.50
40670;DHT22;26355;45.528;9.234;2022-07-24T15:07:09;35.50;77.40
40670;DHT22;26355;45.528;9.234;2022-07-24T15:09:35;35.50;77.70
40670;DHT22;26355;45.528;9.234;2022-07-24T15:12:00;35.40;77.90
40670;DHT22;26355;45.528;9.234;2022-07-24T15:14:26;35.40;78.10
40670;DHT22;26355;45.528;9.234;2022-07-24T15:16:52;35.50;78.00
40670;DHT22;26355;45.528;9.234;2022-07-24T15:19:18;35.50;77.50
40670;DHT22;26355;45.528;9.234;2022-07-24T15:21:43;35.60;77.50
40670;DHT22;26355;45.528;9.234;2022-07-24T15:24:09;35.60;77.70
40670;DHT22;26355;45.528;9.234;2022-07-24T15:26:35;35.60;77.80
40670;DHT22;26355;45.528;9.234;2022-07-24T15:29:00;35.60;77.80
40670;DHT22;26355;45.528;9.234;2022-07-24T15:31:26;35.60;78.30
40670;DHT22;26355;45.528;9.234;2022-07-24T15:33:52;35.60;77.60
40670;DHT22;26355;45.528;9.234;2022-07-24T15:36:17;35.70;77.60
40670;DHT22;26355;45.528;9.234;2022-07-24T15:38:43;35.60;77.60
40670;DHT22;26355;45.528;9.234;2022-07-24T15:41:09;35.60;77.50
40670;DHT22;26355;45.528;9.234;2022-07-24T15:43:34;35.50;77.90
40670;DHT22;26355;45.528;9.234;2022-07-24T15:46:01;35.50;77.80
40670;DHT22;26355;45.528;9.234;2022-07-24T15:48:26;35.50;77.20
40670;DHT22;26355;45.528;9.234;2022-07-24T15:50:52;35.50;77.00
40670;DHT22;26355;45.528;9.234;2022-07-24T15:53:19;35.50;77.10
40670;DHT22;26355;45.528;9.234;2022-07-24T15:55:44;35.50;77.20
40670;DHT22;26355;45.528;9.234;2022-07-24T15:58:10;35.50;77.20
40670;DHT22;26355;45.528;9.234;2022-07-24T16:00:36;35.50;77.10